Aventura, Florida
Current Conditions -  °F | °C
As of 3:53 AM on Thursday 23 Oct 2014 (Local Time) from KHWO Reporting Station
Few Clouds Few Clouds  
Wind Chill: 74°   Ceiling: Unl
Heat Index: 74°   Visibility: 10mi
Dew Point: 71°   Wind: 5mph
Humidity: 91%   Direction: NA
Pressure: 29.9"   Gusts: NA
Location:  25.9536°N, 80.1568°W
Report Text: KHWO 230753Z AUTO VRB04KT 10SM FEW075 23/22 A2990 RMK AO2 SLP124 T02330217
Loading
Personal Weather Stations






























Interactive Weather Map
Tropical Storm Tracking
New forecast layout! Learn more

10-Day Weather Forecast

Advertisements
Track Severe Weather on mobile